Time;durP1;ratioP1;P1;durP2;ratioP2;P2;SDS_P1;SDS_P2;PMS_P1;PMS_P2;Temp;Humidity;BMP_temperature;BMP_pressure;BME280_temperature;BME280_humidity;BME280_pressure;Samples;Min_cycle;Max_cycle;Signal;HPM_P1;HPM_P2
2023/02/07 00:00:00;;;;;;;15.60;4.80;;;1.10;99.90;;;;;;5050015;28;20389;-60
2023/02/07 00:02:26;;;;;;;9.85;4.55;;;0.90;1.00;;;;;;5050852;28;20393;-60
2023/02/07 00:04:52;;;;;;;13.50;4.78;;;0.90;1.00;;;;;;5049833;28;20425;-59
2023/02/07 00:07:17;;;;;;;13.63;4.60;;;0.80;1.00;;;;;;5050451;28;20940;-60
2023/02/07 00:09:43;;;;;;;14.80;5.45;;;0.70;99.90;;;;;;5049842;28;20400;-60
2023/02/07 00:12:08;;;;;;;12.68;5.00;;;0.70;99.90;;;;;;5050266;28;20397;-58
2023/02/07 00:14:34;;;;;;;11.07;4.67;;;0.90;99.90;;;;;;5050324;28;20425;-59
2023/02/07 00:17:00;;;;;;;12.82;4.95;;;0.80;20.00;;;;;;5049412;28;20401;-62
2023/02/07 00:19:25;;;;;;;13.30;5.00;;;0.80;99.90;;;;;;5050515;28;20386;-60
2023/02/07 00:21:51;;;;;;;11.27;4.37;;;0.80;31.90;;;;;;5049250;28;20389;-60
2023/02/07 00:24:16;;;;;;;11.30;4.80;;;0.80;27.00;;;;;;5049823;28;20413;-60
2023/02/07 00:26:42;;;;;;;11.40;5.10;;;0.80;1.00;;;;;;5049446;28;20501;-59
2023/02/07 00:29:09;;;;;;;12.87;5.50;;;0.80;1.00;;;;;;5049938;28;20377;-60
2023/02/07 00:31:35;;;;;;;10.90;4.90;;;0.70;1.00;;;;;;5049985;28;20389;-58
2023/02/07 00:34:04;;;;;;;11.23;5.18;;;0.70;1.00;;;;;;5049197;28;20534;-59
2023/02/07 00:36:32;;;;;;;14.82;5.97;;;0.60;1.00;;;;;;5050116;28;20374;-59
2023/02/07 00:39:00;;;;;;;12.02;5.57;;;0.50;1.00;;;;;;5048716;28;20647;-59
2023/02/07 00:41:27;;;;;;;11.88;5.40;;;0.50;1.00;;;;;;5049809;28;20476;-58
2023/02/07 00:43:53;;;;;;;15.32;6.60;;;0.40;1.00;;;;;;5048887;28;20401;-59
2023/02/07 00:46:18;;;;;;;13.95;5.90;;;0.30;1.00;;;;;;5049745;28;20479;-59
2023/02/07 00:48:44;;;;;;;13.65;5.40;;;1.40;1.00;;;;;;5048657;28;20393;-58
2023/02/07 00:51:12;;;;;;;13.77;5.03;;;0.20;1.00;;;;;;5049764;28;20729;-59
2023/02/07 00:53:38;;;;;;;13.70;6.07;;;0.20;1.00;;;;;;5049029;28;20503;-57
2023/02/07 00:56:05;;;;;;;12.13;5.80;;;0.20;99.90;;;;;;5049285;28;20412;-58
2023/02/07 00:58:31;;;;;;;12.93;6.38;;;0.20;1.00;;;;;;5049603;28;20404;-59
2023/02/07 01:01:00;;;;;;;14.87;5.90;;;0.10;99.90;;;;;;5048191;28;20393;-59
2023/02/07 01:03:26;;;;;;;14.57;7.03;;;0.10;99.90;;;;;;5049754;28;20866;-59
2023/02/07 01:05:52;;;;;;;13.70;5.88;;;0.00;99.90;;;;;;5048546;28;20451;-59
2023/02/07 01:08:17;;;;;;;14.33;6.47;;;0.00;99.90;;;;;;5049825;28;20385;-59
2023/02/07 01:10:44;;;;;;;14.50;6.00;;;-0.10;99.90;;;;;;5048298;28;20389;-59
2023/02/07 01:13:11;;;;;;;16.75;7.03;;;1.80;99.90;;;;;;5048788;28;20870;-59
2023/02/07 01:15:38;;;;;;;14.85;7.05;;;0.10;99.90;;;;;;5048891;28;20393;-58
2023/02/07 01:18:05;;;;;;;15.95;6.78;;;0.10;99.90;;;;;;5049164;28;20400;-59
2023/02/07 01:20:31;;;;;;;14.93;6.80;;;0.10;99.90;;;;;;5049104;28;20404;-59
2023/02/07 01:22:56;;;;;;;15.57;6.75;;;0.10;99.90;;;;;;5047943;28;21090;-59
2023/02/07 01:25:22;;;;;;;14.83;6.70;;;0.10;99.90;;;;;;5048605;28;20953;-59
2023/02/07 01:27:47;;;;;;;16.17;6.57;;;0.10;1.00;;;;;;5047870;28;20404;-58
2023/02/07 01:30:13;;;;;;;18.17;8.15;;;0.00;1.00;;;;;;5048952;28;20877;-58
2023/02/07 01:32:39;;;;;;;16.17;7.35;;;0.00;1.00;;;;;;5048531;28;20871;-57
2023/02/07 01:35:05;;;;;;;16.90;7.37;;;-0.10;1.00;;;;;;5049839;28;20439;-59
2023/02/07 01:37:31;;;;;;;16.47;7.30;;;-0.10;1.00;;;;;;5049011;28;20389;-59
2023/02/07 01:39:56;;;;;;;15.50;7.03;;;-0.10;1.00;;;;;;5048687;28;21069;-59
2023/02/07 01:42:25;;;;;;;17.23;7.75;;;-0.10;1.00;;;;;;5048951;28;20875;-59
2023/02/07 01:44:50;;;;;;;19.38;8.10;;;0.10;1.00;;;;;;5048449;28;20459;-59
2023/02/07 01:47:22;;;;;;;16.57;7.27;;;-0.10;1.00;;;;;;5049054;28;20746;-58
2023/02/07 01:49:52;;;;;;;14.32;6.95;;;-0.20;1.00;;;;;;5048535;28;20409;-59
2023/02/07 01:52:24;;;;;;;15.85;7.00;;;-0.30;1.00;;;;;;5046740;28;20413;-59
2023/02/07 01:54:54;;;;;;;19.13;7.45;;;-0.30;1.00;;;;;;5041156;28;20438;-59
2023/02/07 01:57:21;;;;;;;18.73;7.72;;;-0.30;1.00;;;;;;5048426;28;20794;-58
2023/02/07 01:59:50;;;;;;;14.93;7.43;;;-0.30;1.00;;;;;;5048148;28;20450;-59
2023/02/07 02:02:18;;;;;;;17.92;7.82;;;-0.30;1.00;;;;;;5048938;28;20887;-59
2023/02/07 02:04:44;;;;;;;19.58;7.75;;;-0.40;1.00;;;;;;5048346;28;20413;-59
2023/02/07 02:07:12;;;;;;;20.30;7.88;;;-0.50;1.00;;;;;;5048919;28;20404;-58
2023/02/07 02:09:38;;;;;;;18.33;7.68;;;-0.40;1.00;;;;;;5048661;28;20397;-57
2023/02/07 02:12:03;;;;;;;17.75;8.05;;;-0.40;1.00;;;;;;5049476;28;20397;-59
2023/02/07 02:14:53;;;;;;;23.23;7.70;;;-0.40;1.00;;;;;;5052745;28;20751;-59
2023/02/07 02:17:40;;;;;;;18.02;8.43;;;-0.50;1.00;;;;;;5052812;28;20394;-58
2023/02/07 02:20:11;;;;;;;20.95;7.95;;;-0.50;1.00;;;;;;5052274;28;20460;-59
2023/02/07 02:23:11;;;;;;;17.38;7.80;;;-0.50;1.00;;;;;;5052461;28;20393;-58
2023/02/07 02:25:36;;;;;;;21.65;8.68;;;-0.60;1.00;;;;;;5052269;28;20435;-58
2023/02/07 02:28:23;;;;;;;14.57;6.63;;;1.50;1.00;;;;;;5051556;28;20966;-59
2023/02/07 02:31:08;;;;;;;18.02;8.48;;;-0.50;1.00;;;;;;5051736;28;20451;-60
2023/02/07 02:34:04;;;;;;;20.25;8.30;;;-0.70;1.00;;;;;;5053033;28;20393;-59
2023/02/07 02:36:38;;;;;;;17.17;8.57;;;-0.70;1.00;;;;;;5052380;28;20401;-59
2023/02/07 02:39:18;;;;;;;16.70;7.43;;;-0.80;1.00;;;;;;5051823;28;20394;-59
2023/02/07 02:42:08;;;;;;;19.00;8.23;;;-0.80;1.00;;;;;;5051152;28;20439;-59
2023/02/07 02:44:43;;;;;;;20.13;9.20;;;-0.90;1.00;;;;;;5052562;28;20874;-59
2023/02/07 02:47:10;;;;;;;16.77;7.88;;;-0.90;1.00;;;;;;5052405;28;20378;-59
2023/02/07 02:49:37;;;;;;;18.70;8.45;;;-0.90;1.00;;;;;;5051815;28;20436;-59
2023/02/07 02:52:06;;;;;;;19.30;8.85;;;-1.00;1.00;;;;;;5050163;28;20855;-59
2023/02/07 02:54:37;;;;;;;18.65;9.07;;;-1.00;99.90;;;;;;5051618;28;20417;-58
2023/02/07 02:57:18;;;;;;;19.58;8.32;;;-1.00;99.90;;;;;;5031932;28;20414;-59
2023/02/07 03:00:09;;;;;;;17.60;7.88;;;-1.00;99.90;;;;;;5046396;28;20385;-59
2023/02/07 03:02:50;;;;;;;19.08;8.07;;;-1.00;99.90;;;;;;5051691;28;20899;-59
2023/02/07 03:05:30;;;;;;;19.60;9.38;;;-1.10;99.90;;;;;;5051807;28;20439;-59
2023/02/07 03:08:21;;;;;;;22.73;9.43;;;-1.10;1.00;;;;;;5050862;28;20397;-59
2023/02/07 03:11:05;;;;;;;18.02;8.90;;;-1.00;1.00;;;;;;5051067;28;20475;-59
2023/02/07 03:13:43;;;;;;;20.33;9.20;;;-1.10;99.90;;;;;;5051625;28;20381;-59
2023/02/07 03:16:22;;;;;;;17.60;9.18;;;-1.10;99.90;;;;;;5051675;28;20413;-59
2023/02/07 03:18:48;;;;;;;18.83;9.48;;;-1.10;1.00;;;;;;5050939;28;20397;-59
2023/02/07 03:21:29;;;;;;;17.67;8.63;;;-1.10;99.90;;;;;;5051610;28;20400;-59
2023/02/07 03:23:58;;;;;;;23.17;9.10;;;-1.10;99.90;;;;;;5050634;28;20382;-59
2023/02/07 03:26:24;;;;;;;21.30;9.60;;;-1.00;99.90;;;;;;5051096;28;20421;-59
2023/02/07 03:28:52;;;;;;;21.05;9.13;;;-0.90;99.90;;;;;;5049148;28;20413;-59
2023/02/07 03:31:22;;;;;;;22.08;9.48;;;-0.90;99.90;;;;;;5056585;28;20900;-59
2023/02/07 03:33:51;;;;;;;19.47;9.90;;;-0.90;99.90;;;;;;5051607;28;20431;-59
2023/02/07 03:36:34;;;;;;;23.60;10.77;;;-0.90;99.90;;;;;;5051136;28;20764;-59
2023/02/07 03:39:00;;;;;;;19.33;9.70;;;-0.80;99.90;;;;;;5050845;28;20389;-59
2023/02/07 03:41:45;;;;;;;21.63;10.17;;;-0.90;99.90;;;;;;5050794;28;20389;-60
2023/02/07 03:44:13;;;;;;;21.98;10.25;;;-0.90;99.90;;;;;;5051165;28;20398;-59
2023/02/07 03:46:39;;;;;;;18.10;8.70;;;-0.90;99.90;;;;;;5050562;28;20397;-58
2023/02/07 03:49:10;;;;;;;19.47;9.40;;;-0.80;99.90;;;;;;5050548;28;20453;-59
2023/02/07 03:51:36;;;;;;;21.70;10.43;;;-0.80;99.90;;;;;;5050912;28;20431;-58
2023/02/07 03:54:02;;;;;;;26.30;10.48;;;-0.80;99.90;;;;;;5050074;28;20472;-59
2023/02/07 03:56:28;;;;;;;19.75;10.27;;;-0.70;99.90;;;;;;5050326;28;20974;-60
2023/02/07 03:58:53;;;;;;;23.87;10.50;;;-0.80;99.90;;;;;;5050444;28;20469;-59
2023/02/07 04:01:20;;;;;;;21.90;9.97;;;-0.20;99.90;;;;;;5044968;28;20398;-59
2023/02/07 04:03:45;;;;;;;21.85;10.85;;;-0.90;99.90;;;;;;5033625;28;20731;-58
2023/02/07 04:06:11;;;;;;;22.17;10.50;;;-0.90;99.90;;;;;;5051049;28;20412;-60
2023/02/07 04:08:36;;;;;;;23.13;11.00;;;-1.00;99.90;;;;;;5051175;28;20393;-59
2023/02/07 04:11:03;;;;;;;16.97;9.73;;;-1.10;99.90;;;;;;5049717;28;20386;-59
2023/02/07 04:13:29;;;;;;;23.80;9.82;;;-1.10;99.90;;;;;;5050882;28;20425;-59
2023/02/07 04:15:55;;;;;;;20.83;8.88;;;-1.10;99.90;;;;;;5055114;28;20396;-59
2023/02/07 04:18:21;;;;;;;20.13;9.63;;;-1.20;99.90;;;;;;5055617;28;20482;-59
2023/02/07 04:20:47;;;;;;;19.67;8.83;;;-1.20;99.90;;;;;;5050039;28;20815;-59
2023/02/07 04:23:13;;;;;;;21.20;9.83;;;-1.20;99.90;;;;;;5050730;28;20383;-59
2023/02/07 04:25:39;;;;;;;22.27;10.30;;;-1.20;99.90;;;;;;5049843;28;20438;-58
2023/02/07 04:28:04;;;;;;;18.40;9.50;;;-1.20;99.90;;;;;;5049905;28;20453;-59
2023/02/07 04:30:30;;;;;;;19.75;9.65;;;-1.20;99.90;;;;;;5049428;28;20430;-58
2023/02/07 04:32:56;;;;;;;22.63;10.23;;;-1.20;99.90;;;;;;5047915;28;20817;-58
2023/02/07 04:35:22;;;;;;;23.48;10.63;;;-1.30;99.90;;;;;;5049382;28;20402;-58
2023/02/07 04:37:48;;;;;;;23.83;10.93;;;-1.40;99.90;;;;;;5049479;28;20473;-58
2023/02/07 04:40:13;;;;;;;19.88;8.95;;;-1.40;99.90;;;;;;5048117;28;20969;-58
2023/02/07 04:42:39;;;;;;;22.23;10.20;;;;;;;;;;5048993;28;20496;-57
2023/02/07 04:45:06;;;;;;;17.52;10.05;;;;;;;;;;5049675;28;20899;-59
2023/02/07 04:47:32;;;;;;;19.73;9.85;;;;;;;;;;5045838;28;20386;-58
2023/02/07 04:49:57;;;;;;;21.92;10.05;;;-1.50;99.90;;;;;;5049433;28;20381;-58
2023/02/07 04:52:23;;;;;;;24.33;10.38;;;-1.50;99.90;;;;;;5052124;28;20416;-58
2023/02/07 04:54:48;;;;;;;22.10;10.60;;;-1.40;17.10;;;;;;5049059;28;20454;-58
2023/02/07 04:57:15;;;;;;;21.65;9.52;;;;;;;;;;5049323;28;20713;-58
2023/02/07 04:59:41;;;;;;;21.10;10.00;;;;;;;;;;5048986;28;20434;-57
2023/02/07 05:02:07;;;;;;;22.40;9.82;;;;;;;;;;5048637;28;20398;-58
2023/02/07 05:04:33;;;;;;;23.10;11.10;;;;;;;;;;5049545;28;20432;-59
2023/02/07 05:06:59;;;;;;;22.85;10.23;;;;;;;;;;5048609;28;20458;-58
2023/02/07 05:09:25;;;;;;;27.10;11.15;;;-1.30;99.90;;;;;;5049157;28;20425;-58
2023/02/07 05:11:50;;;;;;;19.45;10.20;;;-1.40;99.90;;;;;;5049436;28;20976;-57
2023/02/07 05:14:16;;;;;;;19.40;9.97;;;-1.40;74.10;;;;;;5049449;28;20872;-58
2023/02/07 05:16:41;;;;;;;21.40;9.30;;;-1.40;12.10;;;;;;5048776;28;20401;-57
2023/02/07 05:19:07;;;;;;;22.67;10.55;;;-1.50;14.40;;;;;;5049464;28;20456;-58
2023/02/07 05:21:33;;;;;;;25.57;10.60;;;-1.70;12.60;;;;;;5049608;28;20400;-58
2023/02/07 05:23:58;;;;;;;30.87;12.70;;;-1.30;5.00;;;;;;5048162;28;20401;-58
2023/02/07 05:26:24;;;;;;;33.20;14.43;;;-1.60;24.20;;;;;;5049467;28;20906;-58
2023/02/07 05:28:50;;;;;;;25.08;12.77;;;-1.60;56.90;;;;;;5048350;28;20390;-58
2023/02/07 05:31:15;;;;;;;25.15;11.98;;;-1.60;96.20;;;;;;5049612;28;20397;-58
2023/02/07 05:33:41;;;;;;;23.40;10.53;;;;;;;;;;5049133;28;20390;-57
2023/02/07 05:36:08;;;;;;;24.33;11.40;;;-1.80;99.90;;;;;;5049027;28;20385;-58
2023/02/07 05:38:34;;;;;;;19.80;9.63;;;;;;;;;;5049589;28;20473;-58
2023/02/07 05:41:00;;;;;;;19.30;9.30;;;;;;;;;;5048466;28;20388;-57
2023/02/07 05:43:26;;;;;;;23.20;10.23;;;;;;;;;;5049071;28;20385;-57
2023/02/07 05:45:52;;;;;;;23.65;9.68;;;;;;;;;;5049858;28;20912;-57
2023/02/07 05:48:18;;;;;;;19.33;9.30;;;;;;;;;;5052835;28;20396;-57
2023/02/07 05:50:44;;;;;;;22.23;9.82;;;;;;;;;;5052548;28;20370;-57
2023/02/07 05:53:11;;;;;;;21.20;9.90;;;;;;;;;;5053149;28;20798;-57
2023/02/07 05:55:37;;;;;;;24.65;10.70;;;;;;;;;;5053359;28;20427;-57
2023/02/07 05:58:03;;;;;;;21.83;9.98;;;;;;;;;;5052711;28;20381;-57
2023/02/07 06:00:29;;;;;;;21.43;10.57;;;;;;;;;;5053122;28;20984;-58
2023/02/07 06:02:55;;;;;;;22.23;10.47;;;;;;;;;;5051504;28;20465;-57
2023/02/07 06:05:30;;;;;;;22.20;10.73;;;;;;;;;;5052590;28;20413;-57
2023/02/07 06:07:56;;;;;;;22.85;10.93;;;;;;;;;;5051553;28;20423;-57
2023/02/07 06:10:22;;;;;;;22.40;11.18;;;;;;;;;;5053130;28;20385;-57
2023/02/07 06:12:48;;;;;;;21.35;9.85;;;;;;;;;;5050282;28;20742;-57
2023/02/07 06:15:14;;;;;;;22.52;10.80;;;;;;;;;;5050823;28;20393;-57
2023/02/07 06:17:40;;;;;;;23.10;10.63;;;;;;;;;;5052823;28;20450;-57
2023/02/07 06:20:06;;;;;;;21.10;9.77;;;;;;;;;;5049279;28;20466;-57
2023/02/07 06:22:32;;;;;;;22.58;10.50;;;;;;;;;;5046232;28;20435;-58
2023/02/07 06:24:58;;;;;;;23.80;11.05;;;;;;;;;;5051470;28;20409;-57
2023/02/07 06:27:24;;;;;;;20.75;10.05;;;;;;;;;;5052023;28;20770;-57
2023/02/07 06:29:50;;;;;;;21.00;9.77;;;;;;;;;;5050441;28;20480;-57
2023/02/07 06:32:16;;;;;;;26.35;11.55;;;;;;;;;;5052449;28;20587;-58
2023/02/07 06:34:44;;;;;;;23.40;10.80;;;;;;;;;;5051944;28;20404;-56
2023/02/07 06:37:10;;;;;;;22.15;10.30;;;;;;;;;;5051931;28;20465;-57
2023/02/07 06:39:36;;;;;;;21.98;10.23;;;;;;;;;;5053088;28;20902;-57
2023/02/07 06:42:03;;;;;;;18.42;8.88;;;;;;;;;;5051083;28;20398;-57
2023/02/07 06:44:29;;;;;;;21.20;9.03;;;;;;;;;;5052301;28;20420;-57
2023/02/07 06:46:55;;;;;;;20.80;9.13;;;;;;;;;;5051772;28;20397;-57
2023/02/07 06:49:21;;;;;;;19.67;8.68;;;;;;;;;;5052339;28;20771;-57
2023/02/07 06:51:47;;;;;;;18.40;9.50;;;;;;;;;;5051323;28;20424;-57
2023/02/07 06:54:13;;;;;;;17.35;9.52;;;;;;;;;;5052305;28;20436;-58
2023/02/07 06:56:39;;;;;;;21.98;9.38;;;;;;;;;;5051835;28;20415;-58
2023/02/07 06:59:05;;;;;;;18.42;9.25;;;;;;;;;;5050632;28;20488;-57
2023/02/07 07:01:31;;;;;;;19.77;10.05;;;;;;;;;;5051743;28;20875;-57
2023/02/07 07:03:57;;;;;;;18.53;9.37;;;;;;;;;;5048878;28;20931;-58
2023/02/07 07:06:23;;;;;;;19.10;9.60;;;;;;;;;;5047197;28;20409;-57
2023/02/07 07:08:50;;;;;;;32.30;14.32;;;;;;;;;;5051533;28;20778;-58
2023/02/07 07:11:16;;;;;;;22.10;10.20;;;;;;;;;;5050633;28;20468;-57
2023/02/07 07:13:42;;;;;;;23.35;11.48;;;;;;;;;;5042512;28;20442;-57
2023/02/07 07:16:08;;;;;;;19.70;8.90;;;;;;;;;;5050853;28;20397;-58
2023/02/07 07:18:37;;;;;;;19.67;10.13;;;;;;;;;;5051387;28;20369;-57
2023/02/07 07:21:03;;;;;;;19.23;10.80;;;;;;;;;;5050405;28;20469;-57
2023/02/07 07:23:29;;;;;;;23.45;11.60;;;;;;;;;;5051123;28;20865;-58
2023/02/07 07:25:55;;;;;;;23.08;11.45;;;;;;;;;;5048757;28;20429;-58
2023/02/07 07:28:21;;;;;;;18.42;9.82;;;;;;;;;;5051401;28;20401;-58
2023/02/07 07:30:47;;;;;;;21.02;9.65;;;;;;;;;;5050200;28;20487;-57
2023/02/07 07:33:13;;;;;;;25.77;10.35;;;;;;;;;;5051670;28;20747;-59
2023/02/07 07:35:39;;;;;;;23.10;11.68;;;;;;;;;;5051087;28;20914;-58
2023/02/07 07:38:05;;;;;;;24.27;10.77;;;;;;;;;;5049192;28;20485;-58
2023/02/07 07:40:31;;;;;;;20.60;10.15;;;;;;;;;;5051097;28;20404;-58
2023/02/07 07:42:57;;;;;;;21.83;10.47;;;;;;;;;;5050447;28;20393;-58
2023/02/07 07:45:23;;;;;;;21.90;9.93;;;;;;;;;;5050970;28;20402;-60
2023/02/07 07:47:49;;;;;;;19.30;9.77;;;;;;;;;;5050035;28;20869;-58
2023/02/07 07:50:15;;;;;;;20.90;10.47;;;-0.30;53.30;;;;;;5050868;28;20385;-60
2023/02/07 07:52:41;;;;;;;20.30;10.07;;;-0.40;99.90;;;;;;5051070;28;20394;-59
2023/02/07 07:55:07;;;;;;;25.33;10.20;;;0.70;99.90;;;;;;5050098;28;20470;-59
2023/02/07 07:57:34;;;;;;;18.52;8.85;;;2.20;1.00;;;;;;5049838;28;20432;-59
2023/02/07 07:59:59;;;;;;;18.23;8.52;;;3.20;1.00;;;;;;5050245;28;20421;-59
2023/02/07 08:02:26;;;;;;;16.60;8.43;;;4.10;1.00;;;;;;5051264;28;20416;-59
2023/02/07 08:04:51;;;;;;;14.13;7.30;;;5.10;1.00;;;;;;5050072;28;20954;-59
2023/02/07 08:07:17;;;;;;;15.20;7.60;;;5.90;99.90;;;;;;5050535;28;20486;-62
2023/02/07 08:09:42;;;;;;;17.80;7.90;;;5.90;99.90;;;;;;5050560;28;20398;-58
2023/02/07 08:12:08;;;;;;;16.47;7.90;;;7.30;99.90;;;;;;5050269;28;20421;-60
2023/02/07 08:14:34;;;;;;;18.92;9.52;;;7.00;99.90;;;;;;5050261;28;20397;-60
2023/02/07 08:16:59;;;;;;;17.13;9.20;;;7.50;99.90;;;;;;5049728;28;20393;-60
2023/02/07 08:19:25;;;;;;;18.73;8.90;;;8.10;99.90;;;;;;5050584;28;20397;-60
2023/02/07 08:21:51;;;;;;;18.08;9.20;;;8.50;99.90;;;;;;5049076;28;20863;-60
2023/02/07 08:24:16;;;;;;;16.40;8.70;;;8.40;99.90;;;;;;5050065;28;20729;-60
2023/02/07 08:26:42;;;;;;;16.95;8.50;;;7.90;99.90;;;;;;5050230;28;20413;-60
2023/02/07 08:29:07;;;;;;;17.48;8.80;;;7.80;99.90;;;;;;5049570;28;20404;-60
2023/02/07 08:31:33;;;;;;;16.00;8.07;;;7.80;99.90;;;;;;5049937;28;20424;-61
2023/02/07 08:33:59;;;;;;;17.95;9.43;;;7.20;99.90;;;;;;5049452;28;20396;-60
2023/02/07 08:36:25;;;;;;;16.37;8.43;;;6.30;99.90;;;;;;5049970;28;20408;-60
2023/02/07 08:38:50;;;;;;;16.58;8.38;;;6.10;99.90;;;;;;5049276;28;20390;-60
2023/02/07 08:41:17;;;;;;;16.95;8.45;;;5.90;99.90;;;;;;5050217;28;20397;-60
2023/02/07 08:43:42;;;;;;;15.63;8.20;;;8.10;99.90;;;;;;5048588;28;20409;-60
2023/02/07 08:46:08;;;;;;;15.47;7.97;;;8.90;99.90;;;;;;5045755;28;20414;-60
2023/02/07 08:48:33;;;;;;;16.50;9.07;;;7.80;99.90;;;;;;5049370;28;20396;-60
2023/02/07 08:51:06;;;;;;;14.37;8.00;;;8.20;99.90;;;;;;5048440;28;20504;-60
2023/02/07 08:53:32;;;;;;;17.73;8.85;;;8.80;99.90;;;;;;5046484;28;20402;-60
2023/02/07 08:55:57;;;;;;;16.60;8.40;;;9.50;99.90;;;;;;5047989;28;20405;-61
2023/02/07 08:58:23;;;;;;;20.47;10.20;;;9.50;99.90;;;;;;5047540;28;20743;-61
2023/02/07 09:00:48;;;;;;;14.63;8.90;;;9.20;99.90;;;;;;5048363;28;20398;-61
2023/02/07 09:03:14;;;;;;;16.90;8.82;;;9.30;99.90;;;;;;5040122;28;20405;-61
2023/02/07 09:05:39;;;;;;;16.27;7.17;;;9.80;99.90;;;;;;5047148;28;20508;-60
2023/02/07 09:08:05;;;;;;;16.87;8.53;;;10.60;99.90;;;;;;5042823;28;20377;-61
2023/02/07 09:10:31;;;;;;;16.30;8.40;;;10.70;99.90;;;;;;5049116;28;20838;-61
2023/02/07 09:12:57;;;;;;;14.80;7.33;;;10.30;99.90;;;;;;5048607;28;20401;-60
2023/02/07 09:15:22;;;;;;;17.73;8.90;;;10.10;99.90;;;;;;5048076;28;20459;-61
2023/02/07 09:17:48;;;;;;;16.87;7.33;;;10.20;99.90;;;;;;5046925;28;20866;-60
2023/02/07 09:20:13;;;;;;;16.23;8.05;;;10.70;99.90;;;;;;5048650;28;20397;-60
2023/02/07 09:25:23;;;;;;;16.42;7.75;;;11.20;99.90;;;;;;5048867;28;20429;-60
2023/02/07 09:27:50;;;;;;;16.10;8.30;;;11.40;99.90;;;;;;5047607;28;20446;-59
2023/02/07 09:30:16;;;;;;;14.87;8.03;;;10.50;99.90;;;;;;5048696;28;20397;-60
2023/02/07 09:32:42;;;;;;;15.40;7.80;;;9.90;99.90;;;;;;5050375;28;20407;-60
2023/02/07 09:35:08;;;;;;;16.00;8.33;;;9.90;99.90;;;;;;5048476;28;20467;-60
2023/02/07 09:37:34;;;;;;;16.63;8.13;;;10.00;99.90;;;;;;5044451;28;20404;-60
2023/02/07 09:40:00;;;;;;;16.70;8.23;;;10.20;99.90;;;;;;5042933;28;20404;-60
2023/02/07 09:42:35;;;;;;;17.60;9.38;;;9.50;99.90;;;;;;5049625;28;20394;-62
2023/02/07 09:45:15;;;;;;;17.95;9.38;;;10.00;99.90;;;;;;5047733;28;20416;-61
2023/02/07 09:47:43;;;;;;;14.80;7.93;;;10.40;99.90;;;;;;5044340;28;21029;-60
2023/02/07 09:50:18;;;;;;;16.25;8.48;;;10.60;99.90;;;;;;5048302;28;20392;-59
2023/02/07 09:53:14;;;;;;;15.85;7.97;;;10.20;99.90;;;;;;5041176;28;20401;-58
2023/02/07 09:55:58;;;;;;;15.68;8.30;;;10.70;99.90;;;;;;5030089;28;20439;-59
2023/02/07 09:58:42;;;;;;;15.30;8.23;;;11.00;99.90;;;;;;5045993;28;20799;-60
2023/02/07 10:01:14;;;;;;;16.23;8.13;;;11.10;99.90;;;;;;5048364;28;20420;-60
2023/02/07 10:03:58;;;;;;;16.40;8.80;;;11.50;99.90;;;;;;5052310;28;20866;-61
2023/02/07 10:06:29;;;;;;;18.20;8.95;;;11.10;99.90;;;;;;5049106;28;20460;-61
2023/02/07 10:08:58;;;;;;;15.98;7.93;;;10.50;99.90;;;;;;5047780;28;20619;-60
2023/02/07 10:11:56;;;;;;;15.02;8.27;;;9.80;99.90;;;;;;5048258;28;21056;-60
2023/02/07 10:14:54;;;;;;;16.17;8.70;;;10.40;99.90;;;;;;5004107;28;20405;-60
2023/02/07 10:18:07;;;;;;;16.83;9.10;;;10.90;99.90;;;;;;5004403;28;20397;-61
2023/02/07 10:20:37;;;;;;;15.43;7.82;;;11.80;99.90;;;;;;5038857;28;20504;-59
2023/02/07 10:23:27;;;;;;;18.17;8.43;;;12.10;99.90;;;;;;5045237;28;20894;-60
2023/02/07 10:25:58;;;;;;;14.82;7.50;;;11.50;99.90;;;;;;5039152;28;20413;-59
2023/02/07 10:29:02;;;;;;;15.65;8.35;;;10.60;99.90;;;;;;5048431;28;20878;-61
2023/02/07 10:31:30;;;;;;;15.98;7.90;;;9.90;99.90;;;;;;5045351;28;20408;-59
2023/02/07 10:34:02;;;;;;;16.80;8.50;;;10.30;99.90;;;;;;5050815;28;20465;-59
2023/02/07 10:36:33;;;;;;;16.05;8.00;;;10.90;99.90;;;;;;5048141;28;20411;-60
2023/02/07 10:39:11;;;;;;;20.73;8.20;;;11.20;99.90;;;;;;5045580;28;20520;-59
2023/02/07 10:41:39;;;;;;;13.60;7.10;;;11.00;99.90;;;;;;5051757;28;20471;-59
2023/02/07 10:44:09;;;;;;;14.43;7.72;;;10.10;99.90;;;;;;5051140;28;20389;-59
2023/02/07 10:46:36;;;;;;;17.20;8.38;;;9.30;99.90;;;;;;5052052;28;20841;-61
2023/02/07 10:49:02;;;;;;;14.88;8.30;;;9.70;99.90;;;;;;5046209;28;20450;-62
2023/02/07 10:51:35;;;;;;;14.02;7.75;;;10.70;99.90;;;;;;5046155;28;20408;-62
2023/02/07 10:54:09;;;;;;;14.95;7.70;;;10.80;1.00;;;;;;5050099;28;20703;-62
2023/02/07 10:56:41;;;;;;;15.27;8.32;;;10.10;99.90;;;;;;5051810;28;20421;-60
2023/02/07 10:59:45;;;;;;;14.75;7.95;;;9.80;99.90;;;;;;5050246;28;20946;-60
2023/02/07 11:02:30;;;;;;;14.68;7.60;;;9.40;99.90;;;;;;5052733;28;20889;-61
2023/02/07 11:04:57;;;;;;;16.80;8.18;;;9.60;99.90;;;;;;5058915;28;20406;-60
2023/02/07 11:07:24;;;;;;;15.80;7.70;;;10.00;99.90;;;;;;5051987;28;20393;-63
2023/02/07 11:09:49;;;;;;;15.07;8.23;;;10.40;99.90;;;;;;5051050;28;20393;-59
2023/02/07 11:12:21;;;;;;;16.00;8.07;;;10.70;99.90;;;;;;5051761;28;20523;-62
2023/02/07 11:15:01;;;;;;;16.70;8.27;;;10.40;99.90;;;;;;5051040;28;20747;-59
2023/02/07 11:17:28;;;;;;;15.53;8.17;;;10.10;99.90;;;;;;5050209;28;20938;-59
2023/02/07 11:19:54;;;;;;;17.00;8.10;;;10.00;99.90;;;;;;5050882;28;20489;-59
2023/02/07 11:22:22;;;;;;;15.15;8.30;;;10.10;99.90;;;;;;5051232;28;20484;-59
2023/02/07 11:24:52;;;;;;;15.35;7.63;;;10.10;99.90;;;;;;5050734;28;20762;-58
2023/02/07 11:27:20;;;;;;;18.17;8.70;;;9.90;99.90;;;;;;5050741;28;20783;-58
2023/02/07 11:29:48;;;;;;;13.95;7.13;;;9.70;99.90;;;;;;5050961;28;20424;-58
2023/02/07 11:32:15;;;;;;;14.95;8.00;;;9.20;99.90;;;;;;5053321;28;20401;-59
2023/02/07 11:34:41;;;;;;;15.65;8.38;;;9.30;99.90;;;;;;5055886;28;20397;-59
2023/02/07 11:37:17;;;;;;;14.63;7.60;;;9.30;99.90;;;;;;5050065;28;20390;-59
2023/02/07 11:39:43;;;;;;;19.27;8.48;;;9.10;99.90;;;;;;5051107;28;20728;-59
2023/02/07 11:42:21;;;;;;;14.63;6.80;;;8.90;99.90;;;;;;5048918;28;20456;-59
2023/02/07 11:44:49;;;;;;;18.60;8.88;;;8.50;99.90;;;;;;5049545;28;20417;-58
2023/02/07 11:47:27;;;;;;;15.15;8.02;;;8.10;99.90;;;;;;5050185;28;20408;-59
2023/02/07 11:50:02;;;;;;;18.57;8.60;;;7.40;99.90;;;;;;5049829;28;20400;-61
2023/02/07 11:52:31;;;;;;;16.13;8.35;;;7.10;99.90;;;;;;5050857;28;20472;-60
2023/02/07 11:55:00;;;;;;;14.63;8.00;;;6.60;99.90;;;;;;5048924;28;20413;-59
2023/02/07 11:57:31;;;;;;;14.88;7.50;;;6.60;99.90;;;;;;5047264;28;20405;-61
2023/02/07 12:00:21;;;;;;;15.35;7.38;;;6.70;99.90;;;;;;5043092;28;20394;-60
2023/02/07 12:03:17;;;;;;;18.67;8.10;;;6.20;99.90;;;;;;5047366;28;20427;-59
2023/02/07 12:05:49;;;;;;;16.15;7.32;;;6.60;99.90;;;;;;5049440;28;21416;-60
2023/02/07 12:08:18;;;;;;;16.15;7.53;;;6.20;99.90;;;;;;5048436;28;20401;-58
2023/02/07 12:10:48;;;;;;;17.13;7.40;;;6.30;99.90;;;;;;5048569;28;20405;-60
2023/02/07 12:13:32;;;;;;;15.20;7.40;;;7.40;99.90;;;;;;5046217;28;20401;-62
2023/02/07 12:15:59;;;;;;;16.45;8.25;;;6.50;99.90;;;;;;5049132;28;20495;-62
2023/02/07 12:18:35;;;;;;;18.75;7.95;;;6.50;99.90;;;;;;5049868;28;20392;-59
2023/02/07 12:21:17;;;;;;;16.90;7.50;;;6.30;99.90;;;;;;5047194;28;20481;-60
2023/02/07 12:23:48;;;;;;;17.40;7.75;;;6.30;99.90;;;;;;5048924;28;20491;-59
2023/02/07 12:26:22;;;;;;;19.05;8.48;;;6.30;99.90;;;;;;5046475;28;20448;-62
2023/02/07 12:29:09;;;;;;;13.43;6.60;;;6.40;99.90;;;;;;5049767;28;20420;-60
2023/02/07 12:32:00;;;;;;;15.27;7.15;;;6.40;99.90;;;;;;5048103;28;20508;-62
2023/02/07 12:34:32;;;;;;;13.32;6.32;;;6.30;99.90;;;;;;5046919;28;20405;-59
2023/02/07 12:37:39;;;;;;;12.95;5.80;;;6.50;99.90;;;;;;5044754;28;20471;-60
2023/02/07 12:40:16;;;;;;;13.95;6.55;;;6.80;99.90;;;;;;5006762;28;20432;-60
2023/02/07 12:42:43;;;;;;;16.67;7.25;;;6.90;99.90;;;;;;5044214;28;20413;-61
2023/02/07 12:45:15;;;;;;;17.15;7.43;;;6.80;99.90;;;;;;5048389;28;20412;-59
2023/02/07 12:48:10;;;;;;;14.40;7.00;;;6.80;99.90;;;;;;5049073;28;20572;-59
2023/02/07 12:50:39;;;;;;;14.18;6.50;;;7.00;99.90;;;;;;5049598;28;20400;-60
2023/02/07 12:53:06;;;;;;;14.10;5.95;;;6.80;99.90;;;;;;5048712;28;20433;-59
2023/02/07 12:55:37;;;;;;;13.88;6.53;;;6.60;99.90;;;;;;5048792;28;20407;-59
2023/02/07 12:58:11;;;;;;;15.07;6.57;;;6.50;99.90;;;;;;5046875;28;20394;-59
2023/02/07 13:00:49;;;;;;;12.57;6.05;;;8.20;99.90;;;;;;5046508;28;20393;-59
2023/02/07 13:03:58;;;;;;;14.47;6.00;;;6.30;99.90;;;;;;5049714;28;20666;-60
2023/02/07 13:06:51;;;;;;;13.80;6.65;;;6.60;99.90;;;;;;5049632;28;20472;-62
2023/02/07 13:09:40;;;;;;;13.65;6.75;;;6.90;99.90;;;;;;5008151;28;20412;-59
2023/02/07 13:12:32;;;;;;;13.90;6.82;;;7.00;99.90;;;;;;5048269;28;20394;-62
2023/02/07 13:15:06;;;;;;;13.88;6.38;;;7.10;99.90;;;;;;5047277;28;20401;-59
2023/02/07 13:17:31;;;;;;;15.32;6.30;;;6.60;99.90;;;;;;5049058;28;20447;-59